Time;durP1;ratioP1;P1;durP2;ratioP2;P2;SDS_P1;SDS_P2;PMS_P1;PMS_P2;Temp;Humidity;BMP_temperature;BMP_pressure;BME280_temperature;BME280_humidity;BME280_pressure;Samples;Min_cycle;Max_cycle;Signal;HPM_P1;HPM_P2
2022/05/26 00:01:25;;;;;;;1.35;0.70;;;;;;;21.11;46.67;101665.16;5053034;28;20065;-59
2022/05/26 00:03:51;;;;;;;1.10;0.70;;;;;;;21.11;46.91;101663.38;5051781;28;20025;-59
2022/05/26 00:06:19;;;;;;;2.55;0.70;;;;;;;21.10;46.81;101666.16;5052613;28;20108;-60
2022/05/26 00:08:45;;;;;;;2.10;0.80;;;;;;;21.11;46.65;101665.16;5052960;28;20063;-59
2022/05/26 00:11:18;;;;;;;1.17;0.60;;;;;;;21.09;46.60;101667.09;5051633;28;20049;-59
2022/05/26 00:13:44;;;;;;;1.35;0.73;;;;;;;21.09;46.90;101670.59;5052923;28;20048;-59
2022/05/26 00:16:13;;;;;;;2.53;0.80;;;;;;;21.09;46.95;101664.47;5052432;28;20087;-59
2022/05/26 00:18:39;;;;;;;2.17;0.90;;;;;;;21.07;47.14;101664.59;5051839;28;20028;-59
2022/05/26 00:21:05;;;;;;;3.33;0.90;;;;;;;21.07;47.03;101664.59;5052296;28;20021;-60
2022/05/26 00:23:32;;;;;;;1.42;0.75;;;;;;;21.07;47.09;101666.41;5052441;28;20369;-60
2022/05/26 00:25:59;;;;;;;1.95;0.80;;;;;;;21.06;47.02;101668.22;5051662;28;20025;-59
2022/05/26 00:28:25;;;;;;;2.53;0.90;;;;;;;21.07;47.05;101674.34;5052656;28;20074;-59
2022/05/26 00:30:50;;;;;;;2.20;0.90;;;;;;;21.07;46.85;101684.94;5052250;28;20104;-59
2022/05/26 00:33:17;;;;;;;2.97;0.90;;;;;;;21.06;46.84;101678.81;5051609;28;20273;-60
2022/05/26 00:35:42;;;;;;;1.85;0.80;;;;;;;21.05;47.25;101681.59;5052278;28;20071;-60
2022/05/26 00:38:09;;;;;;;2.67;0.90;;;;;;;21.04;47.20;101682.53;5052327;28;21065;-59
2022/05/26 00:40:36;;;;;;;1.40;0.70;;;;;;;21.03;47.27;101676.41;5051680;28;20036;-60
2022/05/26 00:43:06;;;;;;;3.17;0.90;;;;;;;21.04;47.15;101680.72;5052070;28;20480;-59
2022/05/26 00:45:58;;;;;;;2.55;0.98;;;;;;;21.03;47.04;101681.72;5052548;28;20182;-59
2022/05/26 00:48:27;;;;;;;1.10;0.73;;;;;;;21.02;47.12;101686.16;5052504;28;20159;-59
2022/05/26 00:51:01;;;;;;;1.55;0.70;;;;;;;21.02;47.23;101683.50;5052000;28;20461;-60
2022/05/26 00:53:57;;;;;;;1.63;0.80;;;;;;;21.00;47.13;101679.31;5051711;28;20020;-59
2022/05/26 00:56:32;;;;;;;2.35;1.00;;;;;;;21.02;47.24;101686.16;5052267;28;20032;-59
2022/05/26 00:59:06;;;;;;;2.65;1.13;;;;;;;21.01;47.12;101686.28;5052176;28;20037;-59
2022/05/26 01:01:31;;;;;;;2.17;0.90;;;;;;;20.99;47.16;101681.09;5051656;28;20037;-59
2022/05/26 01:04:07;;;;;;;2.65;1.10;;;;;;;21.00;47.23;101681.97;5051906;28;20029;-60
2022/05/26 01:06:55;;;;;;;2.22;1.00;;;;;;;21.00;47.02;101679.31;5052051;28;20025;-60
2022/05/26 01:09:20;;;;;;;4.50;1.10;;;;;;;21.00;47.18;101689.91;5052273;28;20091;-59
2022/05/26 01:11:48;;;;;;;2.33;0.87;;;;;;;20.99;47.38;101683.75;5052262;28;20509;-59
2022/05/26 01:14:22;;;;;;;2.33;0.90;;;;;;;20.98;47.54;101687.38;5051066;28;20045;-59
2022/05/26 01:17:04;;;;;;;2.05;0.90;;;;;;;20.99;47.39;101688.22;5052335;28;20021;-59
2022/05/26 01:19:51;;;;;;;1.83;0.95;;;;;;;20.97;47.40;101690.16;5051938;28;20033;-59
2022/05/26 01:22:54;;;;;;;3.33;1.10;;;;;;;20.97;47.48;101691.00;5052726;28;20021;-59
2022/05/26 01:25:50;;;;;;;3.30;1.10;;;;;;;20.97;47.36;101688.34;5055611;28;20021;-59
2022/05/26 01:28:55;;;;;;;3.33;1.08;;;;;;;20.94;47.38;101691.22;5055072;28;20031;-59
2022/05/26 01:31:35;;;;;;;2.65;1.10;;;;;;;20.96;47.24;101694.59;5054460;28;20112;-59
2022/05/26 01:34:24;;;;;;;2.15;1.02;;;;;;;20.94;47.33;101693.88;5055263;28;20461;-58
2022/05/26 01:37:05;;;;;;;4.47;1.23;;;;;;;20.95;47.29;101692.06;5054511;28;20025;-59
2022/05/26 01:39:48;;;;;;;3.47;1.15;;;;;;;20.95;47.64;101692.06;5055444;28;20534;-58
2022/05/26 01:42:31;;;;;;;2.08;1.00;;;;;;;20.95;47.41;101692.06;5054497;28;20037;-60
2022/05/26 01:45:10;;;;;;;3.03;1.20;;;;;;;20.94;47.36;101690.41;5055089;28;20116;-60
2022/05/26 01:47:50;;;;;;;3.10;1.20;;;;;;;20.93;47.59;101694.84;5055261;28;20471;-59
2022/05/26 01:50:33;;;;;;;4.10;1.40;;;;;;;20.94;47.78;101704.47;5054499;28;20021;-59
2022/05/26 01:53:34;;;;;;;3.22;1.20;;;;;;;20.93;47.51;101713.38;5055047;28;20033;-59
2022/05/26 01:56:25;;;;;;;2.92;1.17;;;;;;;20.94;47.65;101712.44;5052622;28;20068;-60
2022/05/26 01:59:05;;;;;;;2.90;1.20;;;;;;;20.93;47.73;101716.03;5051398;28;20029;-59
2022/05/26 02:01:35;;;;;;;3.25;1.38;;;;;;;20.91;47.46;101712.66;5055212;28;20021;-60
2022/05/26 02:04:02;;;;;;;4.25;1.52;;;;;;;20.93;47.53;101709.91;5053801;28;20021;-59
2022/05/26 02:06:38;;;;;;;3.63;1.45;;;;;;;20.92;47.64;101718.81;5054855;28;20465;-59
2022/05/26 02:09:13;;;;;;;2.58;1.30;;;;;;;20.92;47.46;101722.31;5054407;28;20127;-59
2022/05/26 02:11:57;;;;;;;2.47;1.20;;;;;;;20.92;47.73;101722.31;5054258;28;20032;-59
2022/05/26 02:14:31;;;;;;;5.03;1.80;;;;;;;20.91;47.60;101727.72;5054783;28;20127;-59
2022/05/26 02:17:07;;;;;;;4.47;1.63;;;;;;;20.91;47.54;101727.72;5054465;28;20032;-59
2022/05/26 02:19:46;;;;;;;3.90;1.50;;;;;;;20.91;47.58;101728.56;5054754;28;20028;-59
2022/05/26 02:22:23;;;;;;;4.47;1.80;;;;;;;20.91;47.68;101735.69;5054467;28;20021;-59
2022/05/26 02:25:16;;;;;;;4.15;1.92;;;;;;;20.90;47.66;101734.00;5053528;28;20024;-59
2022/05/26 02:27:42;;;;;;;3.03;1.40;;;;;;;20.90;47.55;101734.00;5054439;28;20025;-59
2022/05/26 02:30:08;;;;;;;3.97;1.60;;;;;;;20.89;47.59;101738.44;5054098;28;20044;-59
2022/05/26 02:32:47;;;;;;;3.80;1.60;;;;;;;20.90;47.76;101741.94;5053518;28;20456;-59
2022/05/26 02:35:20;;;;;;;3.78;1.58;;;;;;;20.90;47.54;101739.28;5054061;28;20029;-59
2022/05/26 02:37:52;;;;;;;4.72;1.70;;;;;;;20.88;47.92;101747.34;5054426;28;20025;-59
2022/05/26 02:40:17;;;;;;;4.47;1.60;;;;;;;20.88;47.68;101744.72;5053545;28;20389;-59
2022/05/26 02:42:54;;;;;;;3.38;1.52;;;;;;;20.89;47.88;101745.56;5054158;28;20021;-59
2022/05/26 02:45:39;;;;;;;4.63;1.98;;;;;;;20.89;47.83;101750.88;5053279;28;20017;-58
2022/05/26 02:48:26;;;;;;;4.50;1.88;;;;;;;20.88;47.82;101746.53;5053648;28;20040;-59
2022/05/26 02:50:54;;;;;;;4.07;1.58;;;;;;;20.87;47.68;101747.47;5053773;28;20029;-59
2022/05/26 02:53:40;;;;;;;4.28;1.90;;;;;;;20.84;47.75;101749.41;5053297;28;20025;-59
2022/05/26 02:56:20;;;;;;;3.95;1.70;;;;;;;20.87;48.01;101751.00;5053676;28;20075;-59
2022/05/26 02:58:57;;;;;;;3.88;1.67;;;;;;;20.87;47.77;101747.47;5053857;28;20036;-59
2022/05/26 03:01:38;;;;;;;4.25;1.70;;;;;;;20.86;47.69;101751.09;5052968;28;20017;-59
2022/05/26 03:04:25;;;;;;;5.40;1.90;;;;;;;20.86;47.61;101754.59;5053659;28;20036;-59
2022/05/26 03:06:56;;;;;;;5.13;1.95;;;;;;;20.87;47.68;101758.06;5052649;28;20389;-60
2022/05/26 03:09:25;;;;;;;3.95;2.00;;;;;;;20.84;48.00;101754.72;5053707;28;20021;-59
2022/05/26 03:11:56;;;;;;;4.82;2.13;;;;;;;20.86;47.95;101759.06;5053199;28;20060;-59
2022/05/26 03:14:22;;;;;;;4.85;1.90;;;;;;;20.85;47.72;101752.91;5052728;28;20056;-59
2022/05/26 03:16:48;;;;;;;5.55;2.00;;;;;;;20.86;47.82;101753.75;5053586;28;20029;-59
2022/05/26 03:19:14;;;;;;;5.22;2.00;;;;;;;20.84;47.79;101754.72;5053637;28;20021;-59
2022/05/26 03:21:40;;;;;;;7.43;2.13;;;;;;;20.83;47.58;101765.44;5052560;28;20025;-59
2022/05/26 03:24:05;;;;;;;6.93;2.00;;;;;;;20.83;47.73;101763.59;5053154;28;20108;-59
2022/05/26 03:26:34;;;;;;;3.78;1.88;;;;;;;20.82;47.71;101761.94;5053258;28;20017;-59
2022/05/26 03:29:00;;;;;;;3.60;1.83;;;;;;;20.84;47.72;101764.47;5052354;28;20029;-59
2022/05/26 03:31:25;;;;;;;5.05;2.20;;;;;;;20.83;48.11;101774.19;5053427;28;20100;-60
2022/05/26 03:42:11;;;;;;;5.40;2.00;;;;;;;20.83;47.65;101786.63;5052339;28;20509;-59
2022/05/26 03:44:37;;;;;;;4.65;2.00;;;;;;;20.83;47.85;101787.44;5052687;28;20025;-59
2022/05/26 03:47:03;;;;;;;5.13;1.90;;;;;;;20.82;47.66;101785.78;5052651;28;20170;-59
2022/05/26 03:49:28;;;;;;;5.47;2.20;;;;;;;20.81;47.79;101777.97;5052169;28;20453;-60
2022/05/26 03:51:54;;;;;;;4.00;1.70;;;;;;;20.82;47.92;101784.91;5052924;28;20075;-59
2022/05/26 03:54:19;;;;;;;4.75;1.85;;;;;;;20.81;47.79;101792.03;5052828;28;20522;-59
2022/05/26 03:56:44;;;;;;;5.63;2.33;;;;;;;20.82;48.05;101795.53;5052150;28;20083;-60
2022/05/26 03:59:10;;;;;;;5.38;2.00;;;;;;;20.81;48.06;101792.03;5052554;28;20476;-59
2022/05/26 04:01:35;;;;;;;5.27;2.20;;;;;;;20.80;47.74;101789.50;5052863;28;20040;-60
2022/05/26 04:04:01;;;;;;;5.03;1.67;;;;;;;20.81;47.84;101797.34;5051587;28;20025;-60
2022/05/26 04:06:27;;;;;;;4.75;1.85;;;;;;;20.80;47.82;101800.09;5052593;28;20074;-59
2022/05/26 04:08:53;;;;;;;6.65;2.17;;;;;;;20.79;47.91;101804.56;5052520;28;20053;-59
2022/05/26 04:11:19;;;;;;;4.45;1.80;;;;;;;20.81;47.74;101807.09;5051992;28;20071;-59
2022/05/26 04:13:44;;;;;;;6.43;2.53;;;;;;;20.79;47.92;101806.34;5052643;28;20024;-59
2022/05/26 04:16:09;;;;;;;6.07;2.07;;;;;;;20.80;47.78;101802.75;5052101;28;20106;-58
2022/05/26 04:18:34;;;;;;;6.15;2.03;;;;;;;20.80;47.95;101810.69;5051641;28;20280;-58
2022/05/26 04:21:07;;;;;;;6.28;2.20;;;;;;;20.79;47.82;101809.88;5052530;28;20048;-59
2022/05/26 04:23:34;;;;;;;5.15;2.08;;;;;;;20.78;48.01;101818.75;5052616;28;20021;-59
2022/05/26 04:26:02;;;;;;;6.05;2.10;;;;;;;20.80;48.07;101821.28;5051537;28;20025;-59
2022/05/26 04:28:27;;;;;;;5.18;1.75;;;;;;;20.79;48.06;101823.09;5052496;28;20029;-58
2022/05/26 04:30:52;;;;;;;4.87;1.97;;;;;;;20.79;47.94;101823.09;5051279;28;20464;-60
2022/05/26 04:33:18;;;;;;;6.17;2.37;;;;;;;20.79;47.80;101820.47;5052675;28;20301;-58
2022/05/26 04:35:43;;;;;;;5.75;2.05;;;;;;;20.79;47.79;101824.91;5052284;28;20037;-59
2022/05/26 04:38:08;;;;;;;5.17;1.97;;;;;;;20.80;48.23;101826.59;5051496;28;20027;-59
2022/05/26 04:40:33;;;;;;;5.68;2.00;;;;;;;20.78;47.94;101824.06;5052487;28;20365;-60
2022/05/26 04:42:59;;;;;;;5.75;1.90;;;;;;;20.79;47.86;101822.25;5052122;28;20103;-61
2022/05/26 04:45:31;;;;;;;5.35;2.17;;;;;;;20.78;48.08;101826.72;5051562;28;20396;-59
2022/05/26 04:47:57;;;;;;;5.25;1.70;;;;;;;20.78;48.03;101828.53;5051951;28;20033;-59
2022/05/26 04:50:23;;;;;;;5.43;1.90;;;;;;;20.78;48.16;101826.72;5052275;28;20488;-59
2022/05/26 04:52:49;;;;;;;6.20;1.90;;;;;;;20.79;48.18;101843.44;5051505;28;20017;-59
2022/05/26 04:55:16;;;;;;;5.47;1.92;;;;;;;20.79;48.26;101838.13;5052486;28;20112;-59
2022/05/26 04:57:44;;;;;;;5.88;2.22;;;;;;;20.78;48.12;101852.38;5054591;28;20108;-59
2022/05/26 05:00:16;;;;;;;6.20;2.00;;;;;;;20.78;48.02;101852.38;5055272;28;20052;-59
2022/05/26 05:02:44;;;;;;;7.10;2.20;;;;;;;20.78;48.01;101855.84;5056820;28;20031;-60
2022/05/26 05:05:11;;;;;;;5.43;2.08;;;;;;;20.79;47.96;101864.63;5056107;28;20112;-60
2022/05/26 05:07:37;;;;;;;3.90;1.70;;;;;;;20.78;48.38;101857.66;5055570;28;20025;-59
2022/05/26 05:10:03;;;;;;;6.53;2.10;;;;;;;20.78;48.17;101865.63;5054472;28;20036;-59
2022/05/26 05:12:28;;;;;;;5.20;1.85;;;;;;;20.78;47.83;101870.91;5055821;28;20082;-59
2022/05/26 05:14:55;;;;;;;5.45;2.20;;;;;;;20.77;48.21;101867.41;5054631;28;20053;-59
2022/05/26 05:17:23;;;;;;;6.60;2.00;;;;;;;20.78;48.27;101876.22;5055979;28;20025;-59
2022/05/26 05:19:49;;;;;;;5.80;2.00;;;;;;;20.78;48.22;101870.91;5055617;28;20029;-59
2022/05/26 05:22:44;;;;;;;6.00;2.30;;;;;;;20.78;48.33;101882.34;5054733;28;20024;-59
2022/05/26 05:25:21;;;;;;;;;;;;;;;20.79;48.12;101880.53;5055046;28;20485;-59
2022/05/26 05:27:58;;;;;;;4.70;1.83;;;;;;;20.78;47.88;101884.16;5054979;28;19981;-59
2022/05/26 05:30:35;;;;;;;5.22;1.92;;;;;;;20.79;48.11;101888.47;5055550;28;20461;-59
2022/05/26 05:33:16;;;;;;;4.38;1.77;;;;;;;20.78;48.07;101898.25;5055185;28;20074;-59
2022/05/26 05:35:48;;;;;;;5.07;2.05;;;;;;;20.78;48.09;101892.09;5054550;28;20537;-59
2022/05/26 05:38:15;;;;;;;5.40;2.13;;;;;;;20.78;48.47;101900.06;5055494;28;20025;-58
2022/05/26 05:40:45;;;;;;;6.68;2.30;;;;;;;20.78;48.32;101895.59;5055530;28;20021;-59
2022/05/26 05:43:10;;;;;;;5.07;1.95;;;;;;;20.79;48.38;101901.72;5054265;28;20021;-59
2022/05/26 05:45:35;;;;;;;4.78;1.75;;;;;;;20.79;48.27;101904.38;5055166;28;20032;-59
2022/05/26 05:48:03;;;;;;;5.47;1.90;;;;;;;20.78;48.13;101900.06;5054720;28;20044;-59
2022/05/26 05:50:28;;;;;;;6.20;2.05;;;;;;;20.78;47.99;101902.69;5055085;28;20032;-59
2022/05/26 05:52:54;;;;;;;4.50;1.60;;;;;;;20.79;48.20;101907.03;5054600;28;20089;-59
2022/05/26 05:55:22;;;;;;;7.10;1.92;;;;;;;20.78;48.44;101906.19;5054139;28;20298;-59
2022/05/26 05:57:51;;;;;;;5.22;1.80;;;;;;;20.78;48.37;101911.47;5054755;28;20554;-58
2022/05/26 06:00:17;;;;;;;5.80;1.80;;;;;;;20.79;48.19;101913.19;5054761;28;20037;-59
2022/05/26 06:02:45;;;;;;;5.53;1.90;;;;;;;20.79;48.45;101909.66;5053974;28;20090;-59
2022/05/26 06:05:10;;;;;;;6.50;2.05;;;;;;;20.79;48.28;101912.31;5054067;28;20136;-59
2022/05/26 06:07:39;;;;;;;6.45;2.08;;;;;;;20.79;48.43;101920.25;5054284;28;20519;-59
2022/05/26 06:10:07;;;;;;;7.13;2.35;;;;;;;20.79;48.26;101923.78;5053625;28;20035;-58
2022/05/26 06:12:32;;;;;;;4.95;2.08;;;;;;;20.79;48.46;101923.78;5054728;28;20549;-59
2022/05/26 06:14:57;;;;;;;5.80;2.10;;;;;;;20.79;48.08;101926.44;5053872;28;20053;-58
2022/05/26 06:17:22;;;;;;;4.97;2.03;;;;;;;20.80;48.43;101927.25;5053772;28;20029;-59
2022/05/26 06:19:48;;;;;;;4.63;1.90;;;;;;;20.79;48.28;101931.72;5054397;28;20281;-58
2022/05/26 06:22:17;;;;;;;5.57;1.98;;;;;;;20.80;48.53;101938.69;5054476;28;20331;-59
2022/05/26 06:24:43;;;;;;;5.05;2.00;;;;;;;20.80;48.42;101938.69;5053721;28;20029;-59
2022/05/26 06:29:56;;;;;;;7.85;2.10;;;;;;;20.81;48.61;101939.56;5053942;28;20040;-60
2022/05/26 06:37:56;;;;;;;7.15;2.05;;;;;;;20.83;48.29;101954.34;5053082;28;20116;-61
2022/05/26 06:40:24;;;;;;;6.53;2.13;;;;;;;20.83;48.34;101964.13;5054103;28;20040;-61
2022/05/26 06:42:49;;;;;;;5.78;2.00;;;;;;;20.83;48.44;101957.00;5053834;28;20550;-60
2022/05/26 06:45:18;;;;;;;5.38;2.30;;;;;;;20.84;48.47;101953.41;5053287;28;20021;-60
2022/05/26 06:47:43;;;;;;;4.88;2.00;;;;;;;20.87;48.65;101959.44;5053938;28;20483;-61
2022/05/26 06:50:10;;;;;;;7.35;2.08;;;;;;;20.87;48.57;101960.28;5053699;28;20025;-60
2022/05/26 06:52:36;;;;;;;6.40;2.40;;;;;;;20.86;48.71;101963.91;5053054;28;20029;-59
2022/05/26 06:55:07;;;;;;;6.60;2.28;;;;;;;20.87;48.79;101970.03;5053556;28;20032;-59
2022/05/26 06:57:32;;;;;;;5.13;2.03;;;;;;;20.88;48.64;101972.56;5054036;28;20025;-59
2022/05/26 06:59:58;;;;;;;7.18;2.33;;;;;;;20.91;48.77;101971.50;5052741;28;20469;-59
2022/05/26 07:02:24;;;;;;;7.00;2.33;;;;;;;20.92;48.85;101966.09;5053683;28;20033;-58
2022/05/26 07:04:50;;;;;;;5.55;2.28;;;;;;;20.93;48.91;101970.41;5053395;28;20118;-59
2022/05/26 07:07:15;;;;;;;5.53;2.08;;;;;;;20.94;48.92;101974.75;5052566;28;20060;-58
2022/05/26 07:09:44;;;;;;;4.90;1.97;;;;;;;20.94;48.97;101977.41;5053489;28;20029;-58
2022/05/26 07:12:13;;;;;;;8.13;2.50;;;;;;;20.94;48.74;101974.75;5053484;28;20033;-57
2022/05/26 07:14:38;;;;;;;9.00;2.45;;;;;;;20.97;49.05;101984.28;5052486;28;20505;-59
2022/05/26 07:17:04;;;;;;;5.70;1.95;;;;;;;20.97;49.18;101993.06;5053387;28;20094;-58
2022/05/26 07:19:34;;;;;;;6.97;2.05;;;;;;;20.97;48.84;101993.06;5052073;28;20025;-59
2022/05/26 07:22:00;;;;;;;6.32;2.20;;;;;;;20.97;48.90;101990.44;5052877;28;20489;-59
2022/05/26 07:24:25;;;;;;;6.88;3.28;;;;;;;20.99;49.21;101990.31;5053359;28;20025;-59
2022/05/26 07:26:51;;;;;;;6.45;2.20;;;;;;;20.99;49.24;101993.78;5052583;28;20442;-58
2022/05/26 07:29:17;;;;;;;6.32;2.70;;;;;;;20.97;49.22;102001.03;5053394;28;20016;-59
2022/05/26 07:31:43;;;;;;;5.68;2.70;;;;;;;20.96;49.79;102004.63;5055904;28;20100;-60
2022/05/26 07:34:08;;;;;;;8.35;2.58;;;;;;;21.00;49.67;102002.59;5053130;28;20444;-61
2022/05/26 07:42:08;;;;;;;6.68;2.58;;;;;;;21.21;49.14;102008.09;5052446;28;20523;-60
2022/05/26 07:44:39;;;;;;;7.20;2.33;;;;;;;21.27;48.79;102009.41;5053137;28;20028;-59
2022/05/26 07:47:06;;;;;;;6.85;2.58;;;;;;;21.34;48.79;102016.78;5053732;28;20045;-62
2022/05/26 07:49:41;;;;;;;9.25;2.70;;;;;;;21.44;48.80;102016.06;5053928;28;20032;-60
2022/05/26 07:52:07;;;;;;;7.43;2.40;;;;;;;21.51;48.42;102012.03;5053578;28;20568;-60
2022/05/26 07:54:32;;;;;;;5.28;2.45;;;;;;;21.56;48.35;102012.50;5054204;28;20112;-60
2022/05/26 07:56:58;;;;;;;6.35;2.55;;;;;;;21.61;48.19;102012.16;5052030;28;20053;-62
2022/05/26 07:59:24;;;;;;;6.60;3.03;;;;;;;21.63;48.18;102019.00;5052932;28;20025;-60
2022/05/26 08:01:50;;;;;;;5.78;2.28;;;;;;;21.61;48.03;102012.16;5051977;28;20052;-60
2022/05/26 08:04:18;;;;;;;6.47;2.55;;;;;;;21.62;47.72;102022.66;5053120;28;20461;-60
2022/05/26 08:06:46;;;;;;;6.07;2.45;;;;;;;21.60;47.85;102010.44;5053302;28;20500;-61
2022/05/26 08:09:17;;;;;;;6.45;2.60;;;;;;;21.65;48.10;102019.75;5051823;28;20033;-59
2022/05/26 08:11:42;;;;;;;6.35;2.70;;;;;;;21.67;48.05;102024.94;5052954;28;20035;-59
2022/05/26 08:14:08;;;;;;;6.13;2.47;;;;;;;21.68;47.75;102021.31;5053288;28;20440;-59
2022/05/26 08:16:37;;;;;;;6.88;2.88;;;;;;;21.70;47.65;102016.75;5052579;28;20108;-59
2022/05/26 08:19:02;;;;;;;6.50;3.10;;;;;;;21.71;47.93;102032.53;5052611;28;20028;-61
2022/05/26 08:21:28;;;;;;;5.28;2.53;;;;;;;21.73;47.83;102025.31;5053387;28;20033;-61
2022/05/26 08:23:54;;;;;;;7.70;2.72;;;;;;;21.74;47.78;102024.31;5052122;28;20441;-61
2022/05/26 08:26:19;;;;;;;7.28;2.60;;;;;;;21.77;48.12;102023.25;5052675;28;20147;-60
2022/05/26 08:28:45;;;;;;;5.30;2.33;;;;;;;21.79;48.04;102023.13;5052765;28;20029;-59
2022/05/26 08:31:13;;;;;;;7.38;2.47;;;;;;;21.82;48.14;102025.53;5053327;28;20044;-59
2022/05/26 08:33:38;;;;;;;8.65;2.80;;;;;;;21.85;47.56;102034.09;5056825;28;20576;-60
2022/05/26 08:36:13;;;;;;;6.30;2.58;;;;;;;21.87;47.61;102031.31;5057098;28;20120;-60
2022/05/26 08:38:39;;;;;;;9.43;2.90;;;;;;;21.86;47.93;102035.78;5055914;28;20025;-60
2022/05/26 08:41:26;;;;;;;7.28;3.17;;;;;;;21.88;47.93;102038.34;5056103;28;20104;-60
2022/05/26 08:44:00;;;;;;;4.95;2.60;;;;;;;21.85;47.60;102039.41;5056632;28;20082;-59
2022/05/26 08:46:35;;;;;;;5.90;2.70;;;;;;;21.83;47.97;102041.34;5056542;28;20025;-59
2022/05/26 08:49:10;;;;;;;5.82;2.63;;;;;;;21.85;48.00;102052.66;5056296;28;20025;-59
2022/05/26 08:51:43;;;;;;;6.20;2.70;;;;;;;21.86;47.83;102046.41;5056072;28;20033;-59
2022/05/26 08:54:29;;;;;;;6.60;3.15;;;;;;;21.90;47.82;102039.03;5056220;28;20029;-60
2022/05/26 08:56:57;;;;;;;5.43;3.03;;;;;;;21.93;47.82;102039.63;5056178;28;20507;-60
2022/05/26 08:59:29;;;;;;;6.57;3.35;;;;;;;21.98;47.36;102049.91;5055504;28;20033;-61
2022/05/26 09:01:58;;;;;;;7.30;3.55;;;;;;;22.00;47.73;102048.00;5056329;28;20029;-59
2022/05/26 09:04:26;;;;;;;7.88;3.70;;;;;;;21.99;47.53;102059.56;5056898;28;20060;-60
2022/05/26 09:12:57;;;;;;;6.18;3.95;;;;;;;21.99;47.47;102056.91;5043501;28;20345;-60
2022/05/26 09:15:23;;;;;;;7.30;4.50;;;;;;;21.97;47.36;102061.50;5055799;28;20045;-60
2022/05/26 09:17:49;;;;;;;8.75;4.07;;;;;;;21.97;47.53;102061.50;5055817;28;20047;-59
2022/05/26 09:20:41;;;;;;;6.57;3.80;;;;;;;21.98;47.35;102063.16;5055535;28;20119;-58
2022/05/26 09:23:22;;;;;;;8.07;4.00;;;;;;;22.01;47.13;102059.44;5054363;28;20496;-59
2022/05/26 09:25:55;;;;;;;7.97;3.85;;;;;;;21.99;47.10;102054.25;5055939;28;20032;-59
2022/05/26 09:28:43;;;;;;;9.23;3.97;;;;;;;22.02;47.45;102063.78;5055070;28;20104;-58
2022/05/26 09:31:31;;;;;;;7.82;4.55;;;;;;;22.03;47.00;102070.78;5055640;28;20517;-59
2022/05/26 09:34:14;;;;;;;6.78;4.13;;;;;;;22.08;47.10;102079.25;5054812;28;20032;-61
2022/05/26 09:36:46;;;;;;;7.03;4.53;;;;;;;22.12;47.13;102082.50;5055527;28;20384;-60
2022/05/26 09:39:13;;;;;;;9.52;4.57;;;;;;;22.14;46.96;102083.19;5055278;28;20024;-59
2022/05/26 09:41:44;;;;;;;9.07;4.72;;;;;;;22.18;46.96;102087.31;5055046;28;20024;-59
2022/05/26 09:44:41;;;;;;;6.88;4.00;;;;;;;22.21;46.73;102089.72;5054747;28;20017;-60
2022/05/26 09:47:25;;;;;;;7.40;4.25;;;;;;;22.18;46.96;102079.34;5050976;28;20573;-60
2022/05/26 09:49:56;;;;;;;10.45;4.45;;;;;;;22.14;47.01;102101.78;5054792;28;20121;-60
2022/05/26 09:52:25;;;;;;;6.22;4.35;;;;;;;22.10;46.81;102101.19;5055739;28;20075;-59
2022/05/26 09:55:04;;;;;;;7.25;4.55;;;;;;;22.06;47.02;102094.41;5054567;28;20116;-59
2022/05/26 09:57:30;;;;;;;6.53;4.38;;;;;;;22.09;46.94;102094.19;5055912;28;20052;-59
2022/05/26 09:59:55;;;;;;;7.18;4.75;;;;;;;22.10;46.57;102094.06;5055136;28;20095;-60
2022/05/26 10:02:34;;;;;;;9.02;4.95;;;;;;;22.12;46.71;102093.09;5054493;28;20025;-59
2022/05/26 10:05:14;;;;;;;7.80;5.10;;;;;;;22.09;47.04;102083.56;5054993;28;20070;-59
2022/05/26 10:08:05;;;;;;;7.88;4.88;;;;;;;22.06;46.93;102087.31;5054995;28;20389;-61
2022/05/26 10:10:38;;;;;;;7.88;4.63;;;;;;;22.05;46.80;102095.41;5054047;28;20396;-60
2022/05/26 10:13:35;;;;;;;9.18;4.45;;;;;;;22.06;46.83;102097.06;5055797;28;20055;-60
2022/05/26 10:16:13;;;;;;;7.65;4.38;;;;;;;22.08;46.91;102092.50;5053654;28;20081;-59
2022/05/26 10:19:36;;;;;;;6.15;4.47;;;;;;;22.11;46.66;102102.84;5055623;28;20098;-60
2022/05/26 10:22:24;;;;;;;7.30;4.60;;;;;;;22.15;46.50;102100.84;5033197;28;20071;-61
2022/05/26 10:24:59;;;;;;;7.18;4.20;;;;;;;22.17;46.44;102104.19;5033192;28;20032;-60
2022/05/26 10:27:48;;;;;;;6.20;4.68;;;;;;;22.19;46.58;102092.50;5050786;28;20057;-60
2022/05/26 10:30:38;;;;;;;6.68;4.57;;;;;;;22.20;46.67;102094.19;5053529;28;20465;-60
2022/05/26 10:33:25;;;;;;;7.75;4.90;;;;;;;22.21;46.73;102095.03;5054109;28;20469;-59
2022/05/26 10:35:50;;;;;;;7.03;4.50;;;;;;;22.17;46.46;102099.72;5053698;28;20025;-58
2022/05/26 10:38:40;;;;;;;6.57;4.17;;;;;;;22.15;46.71;102106.13;5053822;28;20028;-58
2022/05/26 10:41:30;;;;;;;8.00;4.47;;;;;;;22.10;46.66;102102.03;5053885;28;20385;-58
2022/05/26 10:44:04;;;;;;;6.80;4.53;;;;;;;22.06;46.70;102095.28;5052991;28;20132;-59
2022/05/26 10:46:34;;;;;;;;;;;;;;;22.03;47.13;102095.53;5054734;28;20029;-58
2022/05/26 10:49:37;;;;;;;7.28;4.25;;;;;;;22.00;47.09;102085.16;5053887;28;19912;-59
2022/05/26 10:52:24;;;;;;;5.72;4.03;;;;;;;21.99;47.02;102095.88;5052975;28;20124;-57
2022/05/26 10:55:06;;;;;;;7.00;4.28;;;;;;;21.98;47.35;102094.19;5052723;28;20047;-59
2022/05/26 10:57:57;;;;;;;7.22;4.85;;;;;;;21.94;47.43;102090.94;5053444;28;20385;-58
2022/05/26 11:00:29;;;;;;;5.70;3.95;;;;;;;21.91;47.18;102088.50;5053674;28;20025;-58
2022/05/26 11:03:13;;;;;;;7.35;4.40;;;;;;;21.89;47.73;102101.91;5053610;28;20035;-58
2022/05/26 11:05:48;;;;;;;7.80;4.30;;;;;;;21.89;47.66;102099.25;5053097;28;20032;-59
2022/05/26 11:08:44;;;;;;;7.07;4.30;;;;;;;21.90;47.81;102103.59;5053695;28;20025;-59
2022/05/26 11:11:24;;;;;;;6.32;3.90;;;;;;;21.90;47.84;102103.59;5053518;28;20048;-59
2022/05/26 11:17:24;;;;;;;5.97;4.20;;;;;;;21.87;47.75;102102.97;5053482;28;20174;-58
2022/05/26 11:19:56;;;;;;;6.95;4.45;;;;;;;21.86;47.73;102102.13;5052561;28;20486;-57
2022/05/26 11:22:22;;;;;;;7.18;3.80;;;;;;;21.85;47.92;102102.25;5053349;28;20465;-58
2022/05/26 11:24:52;;;;;;;5.82;4.30;;;;;;;21.83;48.04;102106.84;5052853;28;20041;-59
2022/05/26 11:27:46;;;;;;;6.13;4.78;;;;;;;21.82;47.85;102103.31;5052572;28;20102;-58
2022/05/26 11:36:51;;;;;;;5.97;4.22;;;;;;;21.80;48.52;102093.81;5051829;28;20103;-58
2022/05/26 11:39:21;;;;;;;5.53;4.10;;;;;;;21.77;48.27;102089.59;5053353;28;20079;-59
2022/05/26 11:41:58;;;;;;;5.85;3.88;;;;;;;21.76;48.02;102101.16;5052481;28;20083;-60
2022/05/26 11:45:08;;;;;;;7.55;4.35;;;;;;;21.76;48.16;102095.84;5053154;28;20099;-58
2022/05/26 11:47:46;;;;;;;8.40;4.30;;;;;;;21.75;48.30;102096.81;5051969;28;20114;-58
2022/05/26 11:50:26;;;;;;;8.98;4.38;;;;;;;21.74;47.96;102087.16;5052680;28;20112;-59
2022/05/26 11:52:52;;;;;;;8.07;4.32;;;;;;;21.73;48.17;102081.03;5052774;28;20028;-57
2022/05/26 11:55:36;;;;;;;6.77;4.20;;;;;;;21.74;48.19;102071.25;5052186;28;20442;-58
2022/05/26 11:58:40;;;;;;;6.82;4.05;;;;;;;21.72;48.23;102073.19;5052661;28;20017;-61
2022/05/26 12:01:12;;;;;;;7.75;4.55;;;;;;;21.71;47.32;102072.34;5051927;28;20435;-59
2022/05/26 12:03:52;;;;;;;6.70;4.43;;;;;;;21.70;47.52;102064.50;5052696;28;20484;-62
2022/05/26 12:06:33;;;;;;;10.82;4.65;;;;;;;21.72;47.98;102073.19;5053631;28;20032;-61
2022/05/26 12:09:27;;;;;;;6.88;4.20;;;;;;;21.78;48.19;102071.84;5052754;28;20087;-62
2022/05/26 12:12:03;;;;;;;7.90;4.10;;;;;;;21.87;48.02;102065.81;5053416;28;20027;-60
2022/05/26 12:14:44;;;;;;;7.55;4.30;;;;;;;21.94;48.06;102067.03;5052680;28;20290;-60
2022/05/26 12:17:30;;;;;;;6.47;4.32;;;;;;;22.02;48.12;102064.63;5051769;28;20052;-61
2022/05/26 12:20:03;;;;;;;11.27;4.40;;;;;;;22.12;48.13;102070.03;5051886;28;20083;-61
2022/05/26 12:22:37;;;;;;;7.03;4.28;;;;;;;22.17;47.69;102051.94;5052287;28;20040;-60
2022/05/26 12:25:09;;;;;;;8.63;4.07;;;;;;;22.19;47.47;102054.47;5052563;28;20075;-59
2022/05/26 12:28:05;;;;;;;6.82;4.53;;;;;;;22.21;47.38;102048.09;5054557;28;20025;-59
2022/05/26 12:30:45;;;;;;;8.10;3.90;;;;;;;22.24;47.32;102060.28;5052670;28;20017;-59
2022/05/26 12:33:19;;;;;;;6.45;3.88;;;;;;;22.26;47.18;102055.69;5054239;28;20029;-59